sensor_id;sensor_type;location;lat;lon;timestamp;pressure;altitude;pressure_sealevel;temperature;humidity
36284;BME280;56085;48.910;9.478;2023-03-04T00:00:53;98690.00;;;-0.92;77.86
36284;BME280;56085;48.910;9.478;2023-03-04T00:03:18;98692.69;;;-0.92;77.79
36284;BME280;56085;48.910;9.478;2023-03-04T00:05:44;98701.69;;;-0.92;77.58
36284;BME280;56085;48.910;9.478;2023-03-04T00:08:09;98700.34;;;-1.04;78.21
36284;BME280;56085;48.910;9.478;2023-03-04T00:10:34;98697.34;;;-1.03;78.18
36284;BME280;56085;48.910;9.478;2023-03-04T00:12:59;98695.44;;;-0.97;78.70
36284;BME280;56085;48.910;9.478;2023-03-04T00:15:24;98698.16;;;-0.97;78.59
36284;BME280;56085;48.910;9.478;2023-03-04T00:17:50;98697.59;;;-0.99;78.45
36284;BME280;56085;48.910;9.478;2023-03-04T00:20:15;98695.72;;;-1.04;78.30
36284;BME280;56085;48.910;9.478;2023-03-04T00:22:40;98692.19;;;-1.04;78.40
36284;BME280;56085;48.910;9.478;2023-03-04T00:25:05;98691.41;;;-1.05;78.50
36284;BME280;56085;48.910;9.478;2023-03-04T00:27:31;98697.63;;;-1.04;78.41
36284;BME280;56085;48.910;9.478;2023-03-04T00:29:56;98691.41;;;-1.10;78.55
36284;BME280;56085;48.910;9.478;2023-03-04T00:32:21;98690.03;;;-1.13;78.95
36284;BME280;56085;48.910;9.478;2023-03-04T00:34:47;98697.66;;;-1.20;79.02
36284;BME280;56085;48.910;9.478;2023-03-04T00:37:12;98694.13;;;-1.26;78.97
36284;BME280;56085;48.910;9.478;2023-03-04T00:39:37;98691.72;;;-1.32;79.38
36284;BME280;56085;48.910;9.478;2023-03-04T00:42:03;98699.56;;;-1.31;79.24
36284;BME280;56085;48.910;9.478;2023-03-04T00:44:28;98692.78;;;-1.33;79.36
36284;BME280;56085;48.910;9.478;2023-03-04T00:46:53;98693.06;;;-1.45;79.39
36284;BME280;56085;48.910;9.478;2023-03-04T00:49:18;98691.19;;;-1.50;79.47
36284;BME280;56085;48.910;9.478;2023-03-04T00:51:44;98689.81;;;-1.52;79.49
36284;BME280;56085;48.910;9.478;2023-03-04T00:54:09;98687.41;;;-1.49;79.63
36284;BME280;56085;48.910;9.478;2023-03-04T00:56:34;98687.09;;;-1.52;79.96
36284;BME280;56085;48.910;9.478;2023-03-04T00:58:59;98688.19;;;-1.53;80.00
36284;BME280;56085;48.910;9.478;2023-03-04T01:01:24;98690.09;;;-1.54;80.20
36284;BME280;56085;48.910;9.478;2023-03-04T01:03:49;98683.59;;;-1.53;80.31
36284;BME280;56085;48.910;9.478;2023-03-04T01:06:15;98683.31;;;-1.56;80.52
36284;BME280;56085;48.910;9.478;2023-03-04T01:08:40;98681.69;;;-1.52;80.43
36284;BME280;56085;48.910;9.478;2023-03-04T01:11:05;98680.31;;;-1.55;80.44
36284;BME280;56085;48.910;9.478;2023-03-04T01:13:31;98672.47;;;-1.56;80.65
36284;BME280;56085;48.910;9.478;2023-03-04T01:15:56;98667.31;;;-1.58;80.70
36284;BME280;56085;48.910;9.478;2023-03-04T01:18:22;98661.63;;;-1.56;80.77
36284;BME280;56085;48.910;9.478;2023-03-04T01:20:47;98664.88;;;-1.60;80.81
36284;BME280;56085;48.910;9.478;2023-03-04T01:23:12;98664.88;;;-1.60;80.90
36284;BME280;56085;48.910;9.478;2023-03-04T01:25:37;98669.75;;;-1.67;80.85
36284;BME280;56085;48.910;9.478;2023-03-04T01:28:03;98661.09;;;-1.69;81.24
36284;BME280;56085;48.910;9.478;2023-03-04T01:30:28;98663.81;;;-1.79;81.41
36284;BME280;56085;48.910;9.478;2023-03-04T01:32:53;98662.72;;;-1.83;81.57
36284;BME280;56085;48.910;9.478;2023-03-04T01:35:18;98660.56;;;-1.86;81.19
36284;BME280;56085;48.910;9.478;2023-03-04T01:37:43;98668.38;;;-1.90;80.88
36284;BME280;56085;48.910;9.478;2023-03-04T01:40:09;98664.06;;;-1.91;81.01
36284;BME280;56085;48.910;9.478;2023-03-04T01:42:34;98668.94;;;-1.93;80.81
36284;BME280;56085;48.910;9.478;2023-03-04T01:45:00;98662.16;;;-2.01;80.89
36284;BME280;56085;48.910;9.478;2023-03-04T01:47:27;98659.97;;;-2.09;81.09
36284;BME280;56085;48.910;9.478;2023-03-04T01:49:53;98659.69;;;-2.07;80.94
36284;BME280;56085;48.910;9.478;2023-03-04T01:52:19;98661.59;;;-2.08;81.24
36284;BME280;56085;48.910;9.478;2023-03-04T01:54:45;98665.69;;;-2.05;81.62
36284;BME280;56085;48.910;9.478;2023-03-04T01:57:18;98662.69;;;-2.04;81.99
36284;BME280;56085;48.910;9.478;2023-03-04T01:59:44;98662.97;;;-2.05;81.80
36284;BME280;56085;48.910;9.478;2023-03-04T02:02:09;98670.28;;;-2.01;81.72
36284;BME280;56085;48.910;9.478;2023-03-04T02:04:37;98668.13;;;-2.04;81.85
36284;BME280;56085;48.910;9.478;2023-03-04T02:07:03;98670.28;;;-2.06;81.88
36284;BME280;56085;48.910;9.478;2023-03-04T02:09:29;98668.09;;;-2.09;81.84
36284;BME280;56085;48.910;9.478;2023-03-04T02:11:55;98669.72;;;-2.18;82.14
36284;BME280;56085;48.910;9.478;2023-03-04T02:14:20;98664.31;;;-2.18;82.27
36284;BME280;56085;48.910;9.478;2023-03-04T02:16:45;98665.13;;;-2.13;82.21
36284;BME280;56085;48.910;9.478;2023-03-04T02:19:13;98661.63;;;-2.13;82.06
36284;BME280;56085;48.910;9.478;2023-03-04T02:21:40;98665.94;;;-2.17;82.02
36284;BME280;56085;48.910;9.478;2023-03-04T02:24:17;98659.97;;;-2.19;82.00
36284;BME280;56085;48.910;9.478;2023-03-04T02:26:43;98662.41;;;-2.23;82.08
36284;BME280;56085;48.910;9.478;2023-03-04T02:29:11;98654.53;;;-2.24;81.84
36284;BME280;56085;48.910;9.478;2023-03-04T02:31:37;98655.91;;;-2.22;81.66
36284;BME280;56085;48.910;9.478;2023-03-04T02:34:05;98661.56;;;-2.23;81.51
36284;BME280;56085;48.910;9.478;2023-03-04T02:36:31;98656.97;;;-2.28;81.64
36284;BME280;56085;48.910;9.478;2023-03-04T02:39:00;98652.91;;;-2.25;81.40
36284;BME280;56085;48.910;9.478;2023-03-04T02:41:26;98661.31;;;-2.27;81.55
36284;BME280;56085;48.910;9.478;2023-03-04T02:43:54;98665.34;;;-2.30;81.38
36284;BME280;56085;48.910;9.478;2023-03-04T02:46:19;98658.31;;;-2.41;81.66
36284;BME280;56085;48.910;9.478;2023-03-04T02:48:45;98659.34;;;-2.52;81.37
36284;BME280;56085;48.910;9.478;2023-03-04T02:51:10;98656.09;;;-2.54;81.33
36284;BME280;56085;48.910;9.478;2023-03-04T02:53:35;98662.88;;;-2.52;81.35
36284;BME280;56085;48.910;9.478;2023-03-04T02:56:01;98664.47;;;-2.56;81.33
36284;BME280;56085;48.910;9.478;2023-03-04T02:58:26;98667.44;;;-2.57;81.82
36284;BME280;56085;48.910;9.478;2023-03-04T03:00:51;98676.38;;;-2.62;81.48
36284;BME280;56085;48.910;9.478;2023-03-04T03:03:16;98671.22;;;-2.64;82.07
36284;BME280;56085;48.910;9.478;2023-03-04T03:05:42;98666.88;;;-2.65;81.82
36284;BME280;56085;48.910;9.478;2023-03-04T03:08:07;98666.88;;;-2.65;81.77
36284;BME280;56085;48.910;9.478;2023-03-04T03:10:32;98665.28;;;-2.66;81.59
36284;BME280;56085;48.910;9.478;2023-03-04T03:12:57;98664.97;;;-2.69;81.91
36284;BME280;56085;48.910;9.478;2023-03-04T03:15:23;98660.94;;;-2.67;81.73
36284;BME280;56085;48.910;9.478;2023-03-04T03:17:48;98667.97;;;-2.66;81.52
36284;BME280;56085;48.910;9.478;2023-03-04T03:20:13;98664.44;;;-2.66;81.63
36284;BME280;56085;48.910;9.478;2023-03-04T03:22:39;98662.25;;;-2.69;81.30
36284;BME280;56085;48.910;9.478;2023-03-04T03:25:05;98664.44;;;-2.71;81.49
36284;BME280;56085;48.910;9.478;2023-03-04T03:27:30;98663.06;;;-2.74;81.45
36284;BME280;56085;48.910;9.478;2023-03-04T03:29:55;98653.56;;;-2.82;81.76
36284;BME280;56085;48.910;9.478;2023-03-04T03:32:20;98655.72;;;-2.84;81.91
36284;BME280;56085;48.910;9.478;2023-03-04T03:34:45;98662.75;;;-2.83;82.04
36284;BME280;56085;48.910;9.478;2023-03-04T03:37:11;98655.19;;;-2.86;82.30
36284;BME280;56085;48.910;9.478;2023-03-04T03:39:36;98657.34;;;-2.83;82.44
36284;BME280;56085;48.910;9.478;2023-03-04T03:42:01;98651.09;;;-2.88;82.33
36284;BME280;56085;48.910;9.478;2023-03-04T03:44:26;98656.19;;;-2.97;82.68
36284;BME280;56085;48.910;9.478;2023-03-04T03:46:52;98646.97;;;-3.01;82.15
36284;BME280;56085;48.910;9.478;2023-03-04T03:49:17;98647.22;;;-3.08;82.36
36284;BME280;56085;48.910;9.478;2023-03-04T03:51:42;98652.13;;;-3.05;82.59
36284;BME280;56085;48.910;9.478;2023-03-04T03:54:08;98651.53;;;-3.07;82.75
36284;BME280;56085;48.910;9.478;2023-03-04T03:56:33;98651.53;;;-3.12;82.29
36284;BME280;56085;48.910;9.478;2023-03-04T03:58:58;98662.88;;;-3.15;82.21
36284;BME280;56085;48.910;9.478;2023-03-04T04:01:24;98661.22;;;-3.21;82.80
36284;BME280;56085;48.910;9.478;2023-03-04T04:03:49;98668.81;;;-3.18;82.77
36284;BME280;56085;48.910;9.478;2023-03-04T04:06:14;98672.84;;;-3.21;82.61
36284;BME280;56085;48.910;9.478;2023-03-04T04:08:39;98671.78;;;-3.20;82.50
36284;BME280;56085;48.910;9.478;2023-03-04T04:11:05;98675.28;;;-3.19;82.95
36284;BME280;56085;48.910;9.478;2023-03-04T04:13:30;98672.06;;;-3.21;83.28
36284;BME280;56085;48.910;9.478;2023-03-04T04:15:55;98669.81;;;-3.29;82.85
36284;BME280;56085;48.910;9.478;2023-03-04T04:18:20;98677.94;;;-3.29;82.77
36284;BME280;56085;48.910;9.478;2023-03-04T04:20:45;98670.09;;;-3.31;82.46
36284;BME280;56085;48.910;9.478;2023-03-04T04:23:11;98673.06;;;-3.33;82.66
36284;BME280;56085;48.910;9.478;2023-03-04T04:25:36;98670.03;;;-3.36;82.49
36284;BME280;56085;48.910;9.478;2023-03-04T04:28:01;98674.09;;;-3.39;83.16
36284;BME280;56085;48.910;9.478;2023-03-04T04:30:26;98669.44;;;-3.43;83.58
36284;BME280;56085;48.910;9.478;2023-03-04T04:32:51;98682.44;;;-3.45;83.79
36284;BME280;56085;48.910;9.478;2023-03-04T04:35:17;98680.44;;;-3.60;83.71
36284;BME280;56085;48.910;9.478;2023-03-04T04:37:42;98676.63;;;-3.64;83.63
36284;BME280;56085;48.910;9.478;2023-03-04T04:40:07;98680.13;;;-3.64;83.27
36284;BME280;56085;48.910;9.478;2023-03-04T04:42:33;98676.03;;;-3.66;83.55
36284;BME280;56085;48.910;9.478;2023-03-04T04:44:58;98677.13;;;-3.67;83.55
36284;BME280;56085;48.910;9.478;2023-03-04T04:47:23;98677.41;;;-3.69;83.56
36284;BME280;56085;48.910;9.478;2023-03-04T04:49:48;98666.34;;;-3.62;84.00
36284;BME280;56085;48.910;9.478;2023-03-04T04:52:14;98675.81;;;-3.65;83.76
36284;BME280;56085;48.910;9.478;2023-03-04T04:54:39;98674.72;;;-3.64;84.03
36284;BME280;56085;48.910;9.478;2023-03-04T04:57:04;98677.13;;;-3.67;84.16
36284;BME280;56085;48.910;9.478;2023-03-04T04:59:29;98677.91;;;-3.72;83.95
36284;BME280;56085;48.910;9.478;2023-03-04T05:01:54;98682.19;;;-3.76;84.19
36284;BME280;56085;48.910;9.478;2023-03-04T05:04:19;98680.81;;;-3.79;83.92
36284;BME280;56085;48.910;9.478;2023-03-04T05:06:45;98679.19;;;-3.80;84.51
36284;BME280;56085;48.910;9.478;2023-03-04T05:09:11;98682.16;;;-3.81;84.24
36284;BME280;56085;48.910;9.478;2023-03-04T05:11:36;98684.03;;;-3.82;84.50
36284;BME280;56085;48.910;9.478;2023-03-04T05:14:01;98686.19;;;-3.84;84.24
36284;BME280;56085;48.910;9.478;2023-03-04T05:16:26;98683.50;;;-3.84;84.21
36284;BME280;56085;48.910;9.478;2023-03-04T05:18:51;98696.75;;;-3.82;83.92
36284;BME280;56085;48.910;9.478;2023-03-04T05:21:17;98688.91;;;-3.84;84.10
36284;BME280;56085;48.910;9.478;2023-03-04T05:23:42;98700.00;;;-3.80;84.32
36284;BME280;56085;48.910;9.478;2023-03-04T05:26:09;98698.88;;;-3.84;84.19
36284;BME280;56085;48.910;9.478;2023-03-04T05:28:35;98708.03;;;-3.86;84.42
36284;BME280;56085;48.910;9.478;2023-03-04T05:31:00;98704.75;;;-3.93;84.30
36284;BME280;56085;48.910;9.478;2023-03-04T05:33:26;98698.53;;;-3.93;84.16
36284;BME280;56085;48.910;9.478;2023-03-04T05:35:51;98700.97;;;-3.92;84.15
36284;BME280;56085;48.910;9.478;2023-03-04T05:38:18;98708.81;;;-3.90;84.14
36284;BME280;56085;48.910;9.478;2023-03-04T05:40:44;98709.91;;;-3.91;84.46
36284;BME280;56085;48.910;9.478;2023-03-04T05:43:10;98709.34;;;-3.93;84.17
36284;BME280;56085;48.910;9.478;2023-03-04T05:45:35;98701.53;;;-3.90;83.75
36284;BME280;56085;48.910;9.478;2023-03-04T05:48:01;98711.50;;;-3.90;83.80
36284;BME280;56085;48.910;9.478;2023-03-04T05:50:27;98704.78;;;-3.88;84.01
36284;BME280;56085;48.910;9.478;2023-03-04T05:52:52;98701.56;;;-3.84;84.20
36284;BME280;56085;48.910;9.478;2023-03-04T05:55:17;98701.06;;;-3.81;84.12
36284;BME280;56085;48.910;9.478;2023-03-04T05:57:43;98701.91;;;-3.76;83.88
36284;BME280;56085;48.910;9.478;2023-03-04T06:00:09;98702.31;;;-3.62;84.17
36284;BME280;56085;48.910;9.478;2023-03-04T06:02:35;98712.13;;;-3.51;84.45
36284;BME280;56085;48.910;9.478;2023-03-04T06:05:01;98708.16;;;-3.38;84.41
36284;BME280;56085;48.910;9.478;2023-03-04T06:07:26;98710.97;;;-3.22;84.22
36284;BME280;56085;48.910;9.478;2023-03-04T06:09:51;98711.03;;;-3.12;83.53
36284;BME280;56085;48.910;9.478;2023-03-04T06:12:16;98707.28;;;-3.06;83.70
36284;BME280;56085;48.910;9.478;2023-03-04T06:14:42;98712.22;;;-2.97;83.68
36284;BME280;56085;48.910;9.478;2023-03-04T06:17:07;98709.25;;;-2.91;83.70
36284;BME280;56085;48.910;9.478;2023-03-04T06:19:32;98710.09;;;-2.85;83.79
36284;BME280;56085;48.910;9.478;2023-03-04T06:21:57;98726.28;;;-3.01;83.44
36284;BME280;56085;48.910;9.478;2023-03-04T06:24:23;98721.41;;;-2.99;83.17
36284;BME280;56085;48.910;9.478;2023-03-04T06:26:48;98732.53;;;-2.90;82.82
36284;BME280;56085;48.910;9.478;2023-03-04T06:29:13;98734.13;;;-2.94;82.61
36284;BME280;56085;48.910;9.478;2023-03-04T06:31:39;98744.50;;;-2.81;82.02
36284;BME280;56085;48.910;9.478;2023-03-04T06:34:06;98752.94;;;-2.72;81.73
36284;BME280;56085;48.910;9.478;2023-03-04T06:36:31;98757.56;;;-2.67;81.94
36284;BME280;56085;48.910;9.478;2023-03-04T06:38:56;98749.19;;;-2.60;81.97
36284;BME280;56085;48.910;9.478;2023-03-04T06:41:21;98749.78;;;-2.53;82.09
36284;BME280;56085;48.910;9.478;2023-03-04T06:43:46;98756.56;;;-2.51;82.12
36284;BME280;56085;48.910;9.478;2023-03-04T06:46:11;98753.59;;;-2.44;82.69
36284;BME280;56085;48.910;9.478;2023-03-04T06:48:37;98752.84;;;-2.39;83.00
36284;BME280;56085;48.910;9.478;2023-03-04T06:51:08;98748.22;;;-2.34;83.27
36284;BME280;56085;48.910;9.478;2023-03-04T06:53:34;98752.59;;;-2.28;83.33
36284;BME280;56085;48.910;9.478;2023-03-04T06:56:00;98757.22;;;-2.23;83.50
36284;BME280;56085;48.910;9.478;2023-03-04T06:58:25;98758.06;;;-2.17;83.62
36284;BME280;56085;48.910;9.478;2023-03-04T07:00:50;98748.56;;;-2.15;83.84
36284;BME280;56085;48.910;9.478;2023-03-04T07:03:15;98759.97;;;-2.07;83.74
36284;BME280;56085;48.910;9.478;2023-03-04T07:05:41;98754.56;;;-2.02;83.69
36284;BME280;56085;48.910;9.478;2023-03-04T07:08:06;98764.06;;;-2.00;83.67
36284;BME280;56085;48.910;9.478;2023-03-04T07:10:31;98763.53;;;-1.97;83.96
36284;BME280;56085;48.910;9.478;2023-03-04T07:12:57;98765.44;;;-1.92;83.88
36284;BME280;56085;48.910;9.478;2023-03-04T07:15:22;98767.59;;;-1.94;83.83
36284;BME280;56085;48.910;9.478;2023-03-04T07:17:47;98769.78;;;-1.86;83.62
36284;BME280;56085;48.910;9.478;2023-03-04T07:20:12;98783.31;;;-1.86;83.55
36284;BME280;56085;48.910;9.478;2023-03-04T07:22:37;98783.88;;;-1.79;83.45
36284;BME280;56085;48.910;9.478;2023-03-04T07:25:03;98779.00;;;-1.82;83.33
36284;BME280;56085;48.910;9.478;2023-03-04T07:27:29;98781.97;;;-1.83;83.49
36284;BME280;56085;48.910;9.478;2023-03-04T07:29:54;98786.88;;;-1.75;83.35
36284;BME280;56085;48.910;9.478;2023-03-04T07:32:19;98791.47;;;-1.76;83.25
36284;BME280;56085;48.910;9.478;2023-03-04T07:34:44;98789.34;;;-1.73;83.36
36284;BME280;56085;48.910;9.478;2023-03-04T07:37:09;98795.31;;;-1.56;83.44
36284;BME280;56085;48.910;9.478;2023-03-04T07:39:35;98789.09;;;-1.51;83.25
36284;BME280;56085;48.910;9.478;2023-03-04T07:42:00;98777.97;;;-1.45;83.18
36284;BME280;56085;48.910;9.478;2023-03-04T07:44:25;98791.81;;;-1.41;83.08
36284;BME280;56085;48.910;9.478;2023-03-04T07:46:50;98794.25;;;-1.29;83.34
36284;BME280;56085;48.910;9.478;2023-03-04T07:49:16;98805.66;;;-1.22;83.34
36284;BME280;56085;48.910;9.478;2023-03-04T07:51:41;98800.50;;;-1.13;83.17
36284;BME280;56085;48.910;9.478;2023-03-04T07:54:06;98793.16;;;-1.13;82.87
36284;BME280;56085;48.910;9.478;2023-03-04T07:56:32;98800.50;;;-1.13;82.76
36284;BME280;56085;48.910;9.478;2023-03-04T07:58:58;98792.63;;;-1.10;82.76
36284;BME280;56085;48.910;9.478;2023-03-04T08:01:25;98788.84;;;-1.03;82.66
36284;BME280;56085;48.910;9.478;2023-03-04T08:03:51;98795.31;;;-0.99;82.99
36284;BME280;56085;48.910;9.478;2023-03-04T08:06:16;98791.25;;;-0.92;82.34
36284;BME280;56085;48.910;9.478;2023-03-04T08:08:43;98801.03;;;-0.85;82.17
36284;BME280;56085;48.910;9.478;2023-03-04T08:11:09;98804.53;;;-0.80;82.10
36284;BME280;56085;48.910;9.478;2023-03-04T08:13:34;98799.94;;;-0.74;82.68
36284;BME280;56085;48.910;9.478;2023-03-04T08:16:03;98802.34;;;-0.67;82.06
36284;BME280;56085;48.910;9.478;2023-03-04T08:18:28;98809.94;;;-0.64;82.22
36284;BME280;56085;48.910;9.478;2023-03-04T08:20:54;98815.09;;;-0.58;82.11
36284;BME280;56085;48.910;9.478;2023-03-04T08:23:19;98812.63;;;-0.54;82.19
36284;BME280;56085;48.910;9.478;2023-03-04T08:25:44;98807.44;;;-0.45;81.63
36284;BME280;56085;48.910;9.478;2023-03-04T08:28:10;98813.41;;;-0.38;81.72
36284;BME280;56085;48.910;9.478;2023-03-04T08:30:37;98808.56;;;-0.46;81.17
36284;BME280;56085;48.910;9.478;2023-03-04T08:33:02;98812.59;;;-0.39;81.69
36284;BME280;56085;48.910;9.478;2023-03-04T08:35:27;98807.44;;;-0.35;81.30
36284;BME280;56085;48.910;9.478;2023-03-04T08:37:53;98816.94;;;-0.38;81.19
36284;BME280;56085;48.910;9.478;2023-03-04T08:40:18;98813.41;;;-0.33;81.39
36284;BME280;56085;48.910;9.478;2023-03-04T08:42:43;98815.84;;;-0.26;81.49
36284;BME280;56085;48.910;9.478;2023-03-04T08:45:08;98815.78;;;-0.16;81.17
36284;BME280;56085;48.910;9.478;2023-03-04T08:47:34;98816.84;;;-0.12;81.22
36284;BME280;56085;48.910;9.478;2023-03-04T08:49:59;98812.81;;;-0.14;80.79
36284;BME280;56085;48.910;9.478;2023-03-04T08:52:24;98815.25;;;-0.13;80.62
36284;BME280;56085;48.910;9.478;2023-03-04T08:54:49;98816.59;;;-0.21;80.59
36284;BME280;56085;48.910;9.478;2023-03-04T08:57:15;98815.53;;;-0.20;80.21
36284;BME280;56085;48.910;9.478;2023-03-04T08:59:40;98825.03;;;-0.22;80.19
36284;BME280;56085;48.910;9.478;2023-03-04T09:02:05;98816.59;;;-0.21;80.21
36284;BME280;56085;48.910;9.478;2023-03-04T09:04:30;98825.31;;;-0.24;80.33
36284;BME280;56085;48.910;9.478;2023-03-04T09:06:56;98818.00;;;-0.23;80.87
36284;BME280;56085;48.910;9.478;2023-03-04T09:09:21;98827.19;;;-0.19;80.52
36284;BME280;56085;48.910;9.478;2023-03-04T09:11:46;98830.47;;;-0.22;80.33
36284;BME280;56085;48.910;9.478;2023-03-04T09:14:11;98819.84;;;-0.13;80.67
36284;BME280;56085;48.910;9.478;2023-03-04T09:16:36;98826.03;;;0.03;80.57
36284;BME280;56085;48.910;9.478;2023-03-04T09:19:02;98827.16;;;0.02;80.73
36284;BME280;56085;48.910;9.478;2023-03-04T09:21:27;98825.75;;;0.04;80.36
36284;BME280;56085;48.910;9.478;2023-03-04T09:23:52;98820.34;;;-0.06;80.19
36284;BME280;56085;48.910;9.478;2023-03-04T09:26:21;98813.78;;;0.05;80.33
36284;BME280;56085;48.910;9.478;2023-03-04T09:28:50;98809.72;;;0.08;80.13
36284;BME280;56085;48.910;9.478;2023-03-04T09:31:16;98822.94;;;0.25;80.08
36284;BME280;56085;48.910;9.478;2023-03-04T09:33:41;98813.09;;;0.34;80.13
36284;BME280;56085;48.910;9.478;2023-03-04T09:36:08;98816.91;;;0.38;79.26
36284;BME280;56085;48.910;9.478;2023-03-04T09:38:33;98819.78;;;0.52;79.72
36284;BME280;56085;48.910;9.478;2023-03-04T09:40:59;98820.81;;;0.61;79.36
36284;BME280;56085;48.910;9.478;2023-03-04T09:43:28;98812.91;;;0.65;78.98
36284;BME280;56085;48.910;9.478;2023-03-04T09:45:56;98820.72;;;0.77;78.58
36284;BME280;56085;48.910;9.478;2023-03-04T09:48:23;98818.19;;;0.85;78.02
36284;BME280;56085;48.910;9.478;2023-03-04T09:51:00;98821.41;;;0.93;77.91
36284;BME280;56085;48.910;9.478;2023-03-04T09:53:34;98817.88;;;0.92;77.22
36284;BME280;56085;48.910;9.478;2023-03-04T09:56:01;98821.13;;;0.94;77.15
36284;BME280;56085;48.910;9.478;2023-03-04T10:01:03;98824.63;;;1.00;76.65
36284;BME280;56085;48.910;9.478;2023-03-04T10:03:55;98825.69;;;1.04;76.82
36284;BME280;56085;48.910;9.478;2023-03-04T10:06:22;98828.31;;;1.14;76.62
36284;BME280;56085;48.910;9.478;2023-03-04T10:08:51;98822.13;;;1.03;75.75
36284;BME280;56085;48.910;9.478;2023-03-04T10:14:03;98824.41;;;1.26;75.70
36284;BME280;56085;48.910;9.478;2023-03-04T10:16:36;98824.94;;;1.22;75.71
36284;BME280;56085;48.910;9.478;2023-03-04T10:19:13;98831.81;;;1.20;75.49
36284;BME280;56085;48.910;9.478;2023-03-04T10:21:49;98821.44;;;1.22;74.93
36284;BME280;56085;48.910;9.478;2023-03-04T10:24:16;98822.28;;;1.17;74.90
36284;BME280;56085;48.910;9.478;2023-03-04T10:26:46;98820.28;;;1.28;75.20
36284;BME280;56085;48.910;9.478;2023-03-04T10:29:17;98816.78;;;1.22;75.00
36284;BME280;56085;48.910;9.478;2023-03-04T10:31:43;98820.63;;;1.21;74.41
36284;BME280;56085;48.910;9.478;2023-03-04T10:34:10;98827.06;;;1.31;75.03
36284;BME280;56085;48.910;9.478;2023-03-04T10:36:38;98817.31;;;1.25;75.07
36284;BME280;56085;48.910;9.478;2023-03-04T10:39:07;98820.63;;;1.21;74.31
36284;BME280;56085;48.910;9.478;2023-03-04T10:41:32;98814.81;;;1.28;74.64
36284;BME280;56085;48.910;9.478;2023-03-04T10:46:35;98808.19;;;1.39;73.72
36284;BME280;56085;48.910;9.478;2023-03-04T10:49:01;98801.66;;;1.41;73.66
36284;BME280;56085;48.910;9.478;2023-03-04T10:51:27;98805.75;;;1.38;73.82
36284;BME280;56085;48.910;9.478;2023-03-04T10:54:28;98799.13;;;1.44;73.48
36284;BME280;56085;48.910;9.478;2023-03-04T10:56:55;98796.19;;;1.41;73.50
36284;BME280;56085;48.910;9.478;2023-03-04T11:01:53;98807.03;;;1.46;72.55
36284;BME280;56085;48.910;9.478;2023-03-04T11:04:19;98794.22;;;1.70;72.33
36284;BME280;56085;48.910;9.478;2023-03-04T11:06:47;98798.50;;;1.77;72.23
36284;BME280;56085;48.910;9.478;2023-03-04T11:09:22;98792.84;;;1.73;71.79
36284;BME280;56085;48.910;9.478;2023-03-04T11:11:49;98794.75;;;1.72;71.90
36284;BME280;56085;48.910;9.478;2023-03-04T11:16:39;98797.53;;;1.67;70.90
36284;BME280;56085;48.910;9.478;2023-03-04T11:19:05;98788.47;;;1.72;70.73
36284;BME280;56085;48.910;9.478;2023-03-04T11:21:36;98792.25;;;1.76;71.04
36284;BME280;56085;48.910;9.478;2023-03-04T11:24:03;98787.69;;;1.71;70.00
36284;BME280;56085;48.910;9.478;2023-03-04T11:29:07;98783.28;;;1.76;70.14
36284;BME280;56085;48.910;9.478;2023-03-04T11:31:38;98782.59;;;1.84;69.68
36284;BME280;56085;48.910;9.478;2023-03-04T11:34:11;98780.94;;;1.88;69.60
36284;BME280;56085;48.910;9.478;2023-03-04T11:39:07;98780.63;;;1.89;69.46
36284;BME280;56085;48.910;9.478;2023-03-04T11:41:41;98769.06;;;1.79;70.03
36284;BME280;56085;48.910;9.478;2023-03-04T11:44:10;98775.91;;;1.76;69.41
36284;BME280;56085;48.910;9.478;2023-03-04T11:49:35;98775.69;;;1.72;69.27
36284;BME280;56085;48.910;9.478;2023-03-04T12:00:32;98762.91;;;1.68;67.63
36284;BME280;56085;48.910;9.478;2023-03-04T12:05:26;98754.09;;;1.76;68.40
36284;BME280;56085;48.910;9.478;2023-03-04T12:08:03;98748.75;;;1.66;67.83
36284;BME280;56085;48.910;9.478;2023-03-04T12:10:35;98749.63;;;1.61;68.05
36284;BME280;56085;48.910;9.478;2023-03-04T12:18:19;98737.09;;;1.60;67.29
36284;BME280;56085;48.910;9.478;2023-03-04T12:23:33;98723.22;;;1.81;67.78
36284;BME280;56085;48.910;9.478;2023-03-04T12:31:32;98710.63;;;1.85;66.84
36284;BME280;56085;48.910;9.478;2023-03-04T12:39:40;98704.28;;;1.89;67.27
36284;BME280;56085;48.910;9.478;2023-03-04T12:44:46;98704.22;;;1.95;66.94
36284;BME280;56085;48.910;9.478;2023-03-04T12:49:50;98692.28;;;1.90;66.85
36284;BME280;56085;48.910;9.478;2023-03-04T12:55:03;98690.88;;;1.93;66.71
36284;BME280;56085;48.910;9.478;2023-03-04T12:57:28;98686.88;;;2.04;66.40
36284;BME280;56085;48.910;9.478;2023-03-04T13:05:18;98678.34;;;2.11;67.31
36284;BME280;56085;48.910;9.478;2023-03-04T13:07:55;98670.75;;;2.08;66.91
36284;BME280;56085;48.910;9.478;2023-03-04T13:10:23;98668.47;;;2.15;66.50
36284;BME280;56085;48.910;9.478;2023-03-04T13:12:50;98663.16;;;2.05;67.04
36284;BME280;56085;48.910;9.478;2023-03-04T13:15:16;98673.38;;;2.13;66.62
36284;BME280;56085;48.910;9.478;2023-03-04T13:17:49;98664.63;;;2.16;66.44
36284;BME280;56085;48.910;9.478;2023-03-04T13:20:22;98661.09;;;2.16;66.39
36284;BME280;56085;48.910;9.478;2023-03-04T13:22:52;98673.69;;;2.12;66.19
36284;BME280;56085;48.910;9.478;2023-03-04T13:38:21;98677.31;;;2.07;66.75
36284;BME280;56085;48.910;9.478;2023-03-04T13:48:42;98670.75;;;1.70;66.67
36284;BME280;56085;48.910;9.478;2023-03-04T13:51:14;98679.53;;;1.67;67.36
36284;BME280;56085;48.910;9.478;2023-03-04T13:53:41;98675.09;;;1.71;67.02
36284;BME280;56085;48.910;9.478;2023-03-04T13:56:19;98681.72;;;1.65;66.84
36284;BME280;56085;48.910;9.478;2023-03-04T13:58:45;98676.84;;;1.62;66.63
36284;BME280;56085;48.910;9.478;2023-03-04T14:01:19;98681.03;;;1.54;66.70
36284;BME280;56085;48.910;9.478;2023-03-04T14:03:46;98672.06;;;1.53;66.42
36284;BME280;56085;48.910;9.478;2023-03-04T14:08:40;98673.44;;;1.51;66.88
36284;BME280;56085;48.910;9.478;2023-03-04T14:11:10;98669.09;;;1.50;67.13
36284;BME280;56085;48.910;9.478;2023-03-04T14:13:36;98669.56;;;1.57;66.38
36284;BME280;56085;48.910;9.478;2023-03-04T14:16:01;98675.22;;;1.61;66.74
36284;BME280;56085;48.910;9.478;2023-03-04T14:18:26;98667.91;;;1.56;66.71
36284;BME280;56085;48.910;9.478;2023-03-04T14:20:53;98669.59;;;1.52;67.00
36284;BME280;56085;48.910;9.478;2023-03-04T14:25:50;98657.69;;;1.48;66.29
36284;BME280;56085;48.910;9.478;2023-03-04T14:28:17;98652.81;;;1.45;66.92